Time;durP1;ratioP1;P1;durP2;ratioP2;P2;SDS_P1;SDS_P2;PMS_P1;PMS_P2;Temp;Humidity;BMP_temperature;BMP_pressure;BME280_temperature;BME280_humidity;BME280_pressure;Samples;Min_cycle;Max_cycle;Signal;HPM_P1;HPM_P2
2023/08/23 00:01:32;;;;;;;6.28;2.05;;;17.50;99.90;;;;;;5053164;28;20473;-42
2023/08/23 00:03:58;;;;;;;7.40;2.90;;;17.50;99.90;;;;;;5052250;28;20041;-39
2023/08/23 00:06:23;;;;;;;5.90;2.38;;;17.50;99.90;;;;;;5052592;28;20025;-39
2023/08/23 00:08:49;;;;;;;4.38;2.10;;;17.50;99.90;;;;;;5052644;28;20027;-40
2023/08/23 00:11:15;;;;;;;3.83;2.42;;;17.50;99.90;;;;;;5052742;28;20025;-42
2023/08/23 00:13:41;;;;;;;8.38;3.25;;;17.50;99.90;;;;;;5053119;28;20489;-41
2023/08/23 00:16:06;;;;;;;2.78;2.25;;;17.60;99.90;;;;;;5052900;28;20123;-41
2023/08/23 00:18:32;;;;;;;4.43;2.55;;;17.50;99.90;;;;;;5052910;28;20040;-45
2023/08/23 00:20:58;;;;;;;4.60;2.78;;;17.50;99.90;;;;;;5052035;28;20037;-40
2023/08/23 00:23:23;;;;;;;3.85;2.33;;;17.50;99.90;;;;;;5052751;28;20091;-41
2023/08/23 00:25:49;;;;;;;3.35;2.15;;;17.50;99.90;;;;;;5052414;28;20480;-39
2023/08/23 00:28:19;;;;;;;3.13;2.22;;;17.50;99.90;;;;;;5052784;28;20079;-40
2023/08/23 00:30:52;;;;;;;7.43;2.75;;;17.50;99.90;;;;;;5052692;28;20025;-41
2023/08/23 00:33:17;;;;;;;4.55;2.55;;;17.40;99.90;;;;;;5052788;28;20083;-41
2023/08/23 00:35:43;;;;;;;4.97;3.05;;;17.40;99.90;;;;;;5052951;28;20033;-40
2023/08/23 00:38:09;;;;;;;3.72;2.42;;;17.30;99.90;;;;;;5051653;28;20040;-40
2023/08/23 00:40:35;;;;;;;7.07;2.70;;;17.40;99.90;;;;;;5052651;28;20504;-43
2023/08/23 00:43:00;;;;;;;6.50;2.75;;;17.30;99.90;;;;;;5052449;28;20029;-41
2023/08/23 00:45:28;;;;;;;7.40;2.15;;;17.30;99.90;;;;;;5052618;28;20108;-42
2023/08/23 00:47:54;;;;;;;4.60;2.45;;;17.30;99.90;;;;;;5049166;28;20025;-45
2023/08/23 00:50:20;;;;;;;5.07;2.92;;;17.30;99.90;;;;;;5043026;28;20021;-40
2023/08/23 00:52:46;;;;;;;5.93;3.30;;;17.30;99.90;;;;;;5051457;28;20108;-40
2023/08/23 00:55:12;;;;;;;9.82;3.75;;;17.30;99.90;;;;;;5052516;28;20053;-39
2023/08/23 00:57:38;;;;;;;5.72;3.60;;;17.20;99.90;;;;;;5052407;28;20075;-44
2023/08/23 01:00:05;;;;;;;6.15;3.30;;;17.20;99.90;;;;;;5048577;28;20143;-39
2023/08/23 01:02:30;;;;;;;7.80;3.67;;;17.30;99.90;;;;;;5052062;28;20091;-41
2023/08/23 01:04:56;;;;;;;5.88;3.33;;;17.30;99.90;;;;;;5051739;28;20032;-39
2023/08/23 01:08:14;;;;;;;7.25;4.45;;;17.30;99.90;;;;;;5052197;28;20397;-40
2023/08/23 01:10:54;;;;;;;5.28;3.90;;;17.20;99.90;;;;;;5032242;28;20056;-40
2023/08/23 01:13:37;;;;;;;8.85;3.70;;;17.30;99.90;;;;;;5050358;28;20033;-45
2023/08/23 01:16:03;;;;;;;10.85;4.95;;;17.30;99.90;;;;;;5049578;28;20063;-41
2023/08/23 01:18:30;;;;;;;11.52;4.97;;;17.20;99.90;;;;;;5048280;28;20578;-46
2023/08/23 01:20:58;;;;;;;8.68;5.60;;;17.20;99.90;;;;;;5051251;28;20547;-42
2023/08/23 01:23:26;;;;;;;11.20;5.57;;;17.30;99.90;;;;;;5055247;28;20112;-39
2023/08/23 01:25:52;;;;;;;;;;;17.30;99.90;;;;;;5056277;28;20068;-45
2023/08/23 01:28:19;;;;;;;9.70;4.68;;;17.30;99.90;;;;;;5054428;28;20265;-41
2023/08/23 01:30:46;;;;;;;9.70;4.57;;;17.30;99.90;;;;;;5051429;28;20021;-40
2023/08/23 01:33:26;;;;;;;8.48;4.65;;;17.20;99.90;;;;;;5055144;28;20074;-42
2023/08/23 01:35:58;;;;;;;6.25;4.03;;;17.30;99.90;;;;;;5055707;28;20025;-41
2023/08/23 01:38:26;;;;;;;8.13;4.38;;;17.20;99.90;;;;;;5054883;28;20481;-43
2023/08/23 01:40:53;;;;;;;5.82;3.85;;;17.20;99.90;;;;;;5055841;28;20096;-42
2023/08/23 01:43:18;;;;;;;3.50;2.80;;;17.20;99.90;;;;;;5054837;28;20473;-42
2023/08/23 01:45:44;;;;;;;4.40;2.83;;;17.10;99.90;;;;;;5055680;28;20036;-42
2023/08/23 01:48:09;;;;;;;5.90;3.08;;;17.10;99.90;;;;;;5054808;28;20021;-40
2023/08/23 01:50:35;;;;;;;4.05;2.55;;;17.10;99.90;;;;;;5055501;28;20495;-43
2023/08/23 01:53:01;;;;;;;3.20;2.28;;;17.10;99.90;;;;;;5055527;28;20040;-39
2023/08/23 01:55:26;;;;;;;3.20;2.08;;;17.10;99.90;;;;;;5055555;28;20397;-42
2023/08/23 01:57:52;;;;;;;4.80;2.88;;;17.00;99.90;;;;;;5054489;28;20051;-45
2023/08/23 02:00:18;;;;;;;4.07;3.30;;;17.10;99.90;;;;;;5051636;28;20053;-43
2023/08/23 02:02:43;;;;;;;2.90;2.58;;;17.00;99.90;;;;;;5054491;28;20557;-46
2023/08/23 02:05:09;;;;;;;8.70;3.30;;;17.00;99.90;;;;;;5055201;28;20108;-42
2023/08/23 02:07:34;;;;;;;6.68;2.72;;;17.10;99.90;;;;;;5054669;28;20100;-43
2023/08/23 02:10:00;;;;;;;7.80;3.65;;;17.10;99.90;;;;;;5055222;28;20021;-40
2023/08/23 02:12:26;;;;;;;7.18;3.30;;;17.10;99.90;;;;;;5054315;28;20486;-41
2023/08/23 02:14:51;;;;;;;6.22;3.20;;;17.10;99.90;;;;;;5054390;28;20473;-40
2023/08/23 02:17:17;;;;;;;7.18;3.20;;;17.10;99.90;;;;;;5055073;28;20037;-41
2023/08/23 02:19:43;;;;;;;8.95;4.13;;;17.10;99.90;;;;;;5054055;28;20385;-40
2023/08/23 02:22:08;;;;;;;5.30;3.55;;;17.10;99.90;;;;;;5054259;28;20029;-44
2023/08/23 02:24:34;;;;;;;7.25;3.72;;;17.10;99.90;;;;;;5053112;28;20021;-39
2023/08/23 02:26:59;;;;;;;4.60;3.80;;;17.10;99.90;;;;;;5036179;28;20501;-42
2023/08/23 02:29:26;;;;;;;7.18;4.15;;;17.10;99.90;;;;;;5053132;28;20508;-40
2023/08/23 02:31:52;;;;;;;7.15;4.47;;;17.10;99.90;;;;;;5054516;28;20033;-42
2023/08/23 02:34:17;;;;;;;5.10;3.72;;;17.10;99.90;;;;;;5036146;28;20031;-49
2023/08/23 02:36:43;;;;;;;7.30;4.20;;;17.20;99.90;;;;;;5054632;28;20065;-40
2023/08/23 02:39:09;;;;;;;7.65;3.67;;;17.10;99.90;;;;;;5052478;28;20041;-40
2023/08/23 02:41:34;;;;;;;7.20;3.53;;;17.20;99.90;;;;;;5054700;28;20029;-40
2023/08/23 02:44:00;;;;;;;4.43;3.97;;;17.20;99.90;;;;;;5053170;28;20112;-42
2023/08/23 02:46:26;;;;;;;6.80;3.72;;;17.20;99.90;;;;;;5054555;28;20105;-41
2023/08/23 02:48:51;;;;;;;6.72;3.58;;;17.30;99.90;;;;;;5053602;28;20458;-39
2023/08/23 02:51:17;;;;;;;4.85;3.40;;;17.30;99.90;;;;;;5053534;28;20402;-46
2023/08/23 02:53:43;;;;;;;5.75;3.47;;;17.30;99.90;;;;;;5054626;28;20448;-45
2023/08/23 02:56:08;;;;;;;6.85;3.75;;;17.40;99.90;;;;;;5054369;28;20021;-41
2023/08/23 02:58:34;;;;;;;8.52;4.13;;;17.40;99.90;;;;;;5053405;28;20055;-39
2023/08/23 03:01:01;;;;;;;5.72;4.10;;;17.50;99.90;;;;;;5054457;28;20017;-45
2023/08/23 03:03:26;;;;;;;5.33;3.70;;;17.40;99.90;;;;;;5054149;28;20033;-41
2023/08/23 03:05:55;;;;;;;7.00;4.00;;;17.50;99.90;;;;;;5054134;28;20140;-48
2023/08/23 03:08:21;;;;;;;6.78;4.45;;;17.50;99.90;;;;;;5052391;28;20355;-41
2023/08/23 03:10:47;;;;;;;6.93;3.58;;;17.50;99.90;;;;;;5052922;28;20502;-42
2023/08/23 03:13:13;;;;;;;8.63;4.95;;;17.40;99.90;;;;;;5051938;28;20025;-43
2023/08/23 03:15:38;;;;;;;8.35;3.65;;;17.40;99.90;;;;;;5052801;28;20041;-42
2023/08/23 03:18:04;;;;;;;7.68;4.05;;;17.40;99.90;;;;;;5054176;28;20032;-41
2023/08/23 03:20:30;;;;;;;5.78;4.28;;;17.40;99.90;;;;;;5054162;28;20027;-40
2023/08/23 03:22:55;;;;;;;9.50;4.20;;;17.30;99.90;;;;;;5053762;28;20505;-40
2023/08/23 03:25:21;;;;;;;8.98;4.35;;;17.40;99.90;;;;;;5052585;28;20041;-41
2023/08/23 03:27:52;;;;;;;6.80;4.15;;;17.40;99.90;;;;;;5052860;28;20025;-41
2023/08/23 03:30:18;;;;;;;11.65;5.35;;;17.40;99.90;;;;;;5053665;28;20017;-42
2023/08/23 03:32:44;;;;;;;4.53;3.13;;;17.50;99.90;;;;;;5053531;28;20079;-39
2023/08/23 03:35:10;;;;;;;6.75;3.50;;;17.50;99.90;;;;;;5052672;28;20032;-40
2023/08/23 03:37:35;;;;;;;5.10;3.58;;;17.50;99.90;;;;;;5053738;28;20021;-42
2023/08/23 03:40:01;;;;;;;5.55;3.67;;;17.50;99.90;;;;;;5049109;28;20025;-40
2023/08/23 03:42:27;;;;;;;7.63;4.13;;;17.50;99.90;;;;;;5053434;28;20389;-42
2023/08/23 03:44:53;;;;;;;7.50;4.40;;;17.50;99.90;;;;;;5051016;28;20032;-43
2023/08/23 03:47:19;;;;;;;9.32;4.78;;;17.60;99.90;;;;;;5053393;28;20033;-44
2023/08/23 03:49:44;;;;;;;12.27;4.55;;;17.60;99.90;;;;;;5051349;28;20418;-43
2023/08/23 03:52:10;;;;;;;7.38;4.88;;;17.60;99.90;;;;;;5052128;28;20428;-41
2023/08/23 03:54:36;;;;;;;7.32;4.28;;;17.60;99.90;;;;;;5051607;28;20596;-39
2023/08/23 03:57:01;;;;;;;8.45;4.47;;;17.60;99.90;;;;;;5053029;28;20100;-43
2023/08/23 03:59:27;;;;;;;11.90;4.82;;;17.60;99.90;;;;;;5052235;28;20052;-40
2023/08/23 04:01:53;;;;;;;8.68;4.90;;;17.60;99.90;;;;;;5053357;28;20431;-43
2023/08/23 04:04:18;;;;;;;9.13;5.05;;;17.60;99.90;;;;;;5033404;28;20033;-42
2023/08/23 04:06:44;;;;;;;7.38;4.78;;;17.60;99.90;;;;;;5052925;28;20021;-43
2023/08/23 04:09:10;;;;;;;7.65;4.57;;;17.60;99.90;;;;;;5053037;28;20025;-40
2023/08/23 04:11:35;;;;;;;9.60;4.65;;;17.60;99.90;;;;;;5053255;28;20021;-43
2023/08/23 04:14:01;;;;;;;8.02;4.22;;;17.60;99.90;;;;;;5051836;28;20060;-54
2023/08/23 04:16:27;;;;;;;7.93;4.15;;;17.60;99.90;;;;;;5035075;28;20056;-64
2023/08/23 04:18:54;;;;;;;11.65;4.97;;;17.60;99.90;;;;;;5053177;28;20021;-53
2023/08/23 04:21:19;;;;;;;10.73;5.72;;;17.60;99.90;;;;;;5052661;28;20115;-51
2023/08/23 04:23:45;;;;;;;8.75;4.97;;;17.60;99.90;;;;;;5051494;28;20450;-52
2023/08/23 04:26:11;;;;;;;10.32;5.20;;;17.60;99.90;;;;;;5052671;28;20405;-53
2023/08/23 04:28:37;;;;;;;9.57;6.03;;;17.60;99.90;;;;;;5051804;28;20056;-53
2023/08/23 04:31:03;;;;;;;8.35;5.18;;;17.60;99.90;;;;;;5052037;28;20029;-44
2023/08/23 04:33:29;;;;;;;7.57;4.43;;;17.60;99.90;;;;;;5052704;28;20041;-42
2023/08/23 04:35:55;;;;;;;8.77;3.90;;;17.60;99.90;;;;;;5053029;28;20389;-43
2023/08/23 04:38:20;;;;;;;11.13;5.10;;;17.60;99.90;;;;;;5070178;28;20033;-42
2023/08/23 04:40:46;;;;;;;11.40;4.55;;;17.70;99.90;;;;;;5065484;28;20057;-40
2023/08/23 04:43:11;;;;;;;9.40;4.30;;;17.70;99.90;;;;;;5052782;28;20481;-43
2023/08/23 04:45:38;;;;;;;8.32;4.47;;;17.70;99.90;;;;;;5050588;28;20071;-43
2023/08/23 04:48:05;;;;;;;5.70;3.53;;;17.70;99.90;;;;;;5051259;28;20021;-44
2023/08/23 04:50:30;;;;;;;12.55;4.90;;;17.80;99.90;;;;;;5051653;28;20048;-53
2023/08/23 04:52:56;;;;;;;5.93;3.72;;;17.80;99.90;;;;;;5052547;28;20029;-44
2023/08/23 04:55:22;;;;;;;8.98;4.03;;;17.80;99.90;;;;;;5054367;28;20472;-42
2023/08/23 04:57:48;;;;;;;8.93;4.55;;;17.80;99.90;;;;;;5053787;28;20025;-44
2023/08/23 05:00:14;;;;;;;7.70;3.63;;;17.80;99.90;;;;;;5055369;28;20039;-42
2023/08/23 05:02:39;;;;;;;5.68;3.70;;;17.80;99.90;;;;;;5054720;28;20061;-41
2023/08/23 05:05:06;;;;;;;6.88;3.50;;;17.90;99.90;;;;;;5056289;28;20520;-43
2023/08/23 05:07:34;;;;;;;10.32;3.97;;;17.90;99.90;;;;;;5052034;28;20021;-41
2023/08/23 05:09:59;;;;;;;8.38;3.92;;;17.90;99.90;;;;;;5037130;28;20029;-46
2023/08/23 05:12:26;;;;;;;13.38;4.07;;;17.90;99.90;;;;;;5056458;28;20470;-40
2023/08/23 05:14:51;;;;;;;8.20;4.75;;;17.90;99.90;;;;;;5055073;28;20021;-41
2023/08/23 05:17:17;;;;;;;9.98;4.72;;;18.00;99.90;;;;;;5056238;28;20096;-42
2023/08/23 05:19:43;;;;;;;6.45;3.75;;;17.90;99.90;;;;;;5056122;28;20025;-42
2023/08/23 05:22:10;;;;;;;10.65;4.00;;;18.00;99.90;;;;;;5056022;28;20028;-41
2023/08/23 05:24:35;;;;;;;6.20;4.25;;;18.00;99.90;;;;;;5055127;28;20021;-42
2023/08/23 05:27:01;;;;;;;8.88;4.68;;;18.10;99.90;;;;;;5055897;28;20490;-46
2023/08/23 05:29:27;;;;;;;11.77;4.50;;;18.10;99.90;;;;;;5055030;28;20375;-43
2023/08/23 05:31:52;;;;;;;10.55;4.53;;;18.10;99.90;;;;;;5055795;28;20021;-43
2023/08/23 05:34:18;;;;;;;11.80;4.28;;;18.20;99.90;;;;;;5037075;28;20021;-41
2023/08/23 05:36:44;;;;;;;6.72;4.00;;;18.20;99.90;;;;;;5055866;28;20029;-44
2023/08/23 05:39:10;;;;;;;7.82;3.63;;;18.20;99.90;;;;;;5055598;28;20024;-43
2023/08/23 05:41:35;;;;;;;11.85;4.28;;;18.20;99.90;;;;;;5055761;28;20033;-40
2023/08/23 05:44:01;;;;;;;8.38;4.10;;;18.20;99.90;;;;;;5052915;28;20370;-40
2023/08/23 05:46:27;;;;;;;8.60;4.30;;;18.30;99.90;;;;;;5037783;28;20041;-41
2023/08/23 05:48:52;;;;;;;7.45;4.80;;;18.30;99.90;;;;;;5055468;28;20033;-43
2023/08/23 05:51:18;;;;;;;7.57;4.47;;;18.40;99.90;;;;;;5055599;28;20463;-41
2023/08/23 05:53:44;;;;;;;15.43;4.53;;;18.40;99.90;;;;;;5036638;28;20041;-43
2023/08/23 05:56:09;;;;;;;6.93;4.22;;;18.40;99.90;;;;;;5055603;28;20063;-40
2023/08/23 05:58:35;;;;;;;6.55;3.85;;;18.50;99.90;;;;;;5055443;28;20107;-42
2023/08/23 06:01:00;;;;;;;9.55;4.03;;;18.50;99.90;;;;;;5053457;28;20028;-40
2023/08/23 06:03:26;;;;;;;4.82;3.35;;;18.60;99.90;;;;;;5054423;28;20025;-43
2023/08/23 06:05:56;;;;;;;9.10;3.80;;;18.70;99.90;;;;;;5054324;28;20465;-45
2023/08/23 06:08:22;;;;;;;4.75;3.13;;;18.70;99.90;;;;;;5052960;28;20025;-45
2023/08/23 06:10:48;;;;;;;9.43;4.38;;;18.80;99.90;;;;;;5053326;28;20108;-44
2023/08/23 06:13:15;;;;;;;10.82;4.60;;;18.80;99.90;;;;;;5055073;28;20068;-43
2023/08/23 06:15:40;;;;;;;10.27;4.82;;;18.90;99.90;;;;;;5053028;28;20032;-40
2023/08/23 06:18:06;;;;;;;13.60;3.65;;;18.90;99.90;;;;;;5054342;28;20025;-40
2023/08/23 06:20:32;;;;;;;8.88;4.32;;;19.00;99.90;;;;;;5050948;28;20054;-45
2023/08/23 06:22:58;;;;;;;9.70;4.82;;;19.10;99.90;;;;;;5053683;28;20070;-50
2023/08/23 06:25:24;;;;;;;11.18;4.53;;;19.20;99.90;;;;;;5052708;28;20485;-52
2023/08/23 06:27:50;;;;;;;6.40;4.22;;;19.30;99.90;;;;;;5054528;28;20037;-47
2023/08/23 06:30:16;;;;;;;12.07;4.63;;;19.30;99.90;;;;;;5055045;28;20032;-53
2023/08/23 06:32:48;;;;;;;12.75;4.28;;;19.40;99.90;;;;;;5054454;28;20028;-58
2023/08/23 06:35:15;;;;;;;9.82;5.32;;;19.50;99.90;;;;;;5054531;28;20087;-50
2023/08/23 06:37:42;;;;;;;16.15;4.43;;;19.60;99.90;;;;;;5054979;28;20034;-54
2023/08/23 06:40:10;;;;;;;8.02;4.80;;;19.60;99.90;;;;;;5054508;28;20033;-54
2023/08/23 06:42:36;;;;;;;6.65;4.45;;;19.70;99.90;;;;;;5054627;28;20486;-54
2023/08/23 06:45:02;;;;;;;17.35;5.97;;;19.80;99.90;;;;;;5054535;28;20035;-53
2023/08/23 06:47:28;;;;;;;21.08;6.80;;;19.90;99.90;;;;;;5054542;28;20393;-53
2023/08/23 06:49:54;;;;;;;10.60;5.65;;;19.90;99.90;;;;;;5054021;28;20095;-52
2023/08/23 06:52:19;;;;;;;9.88;4.72;;;20.00;99.90;;;;;;5054419;28;20470;-53
2023/08/23 06:54:45;;;;;;;11.52;4.47;;;20.10;99.90;;;;;;5054365;28;20060;-53
2023/08/23 06:57:10;;;;;;;6.90;4.35;;;20.10;99.90;;;;;;5054252;28;20568;-53
2023/08/23 06:59:36;;;;;;;13.85;5.25;;;20.20;99.90;;;;;;5054260;28;20381;-46
2023/08/23 07:02:03;;;;;;;8.75;5.38;;;20.30;99.90;;;;;;5054483;28;20492;-53
2023/08/23 07:04:29;;;;;;;13.80;5.50;;;20.30;99.90;;;;;;5054396;28;20063;-48
2023/08/23 07:06:54;;;;;;;11.10;4.65;;;20.40;99.90;;;;;;5053516;28;20029;-50
2023/08/23 07:09:20;;;;;;;9.35;4.97;;;20.50;99.90;;;;;;5054149;28;20436;-53
2023/08/23 07:11:46;;;;;;;12.60;5.03;;;20.60;99.90;;;;;;5053268;28;20106;-54
2023/08/23 07:14:11;;;;;;;22.85;4.57;;;20.70;99.90;;;;;;5047905;28;20025;-53
2023/08/23 07:16:37;;;;;;;11.60;4.68;;;20.80;99.90;;;;;;5040630;28;20041;-54
2023/08/23 07:19:03;;;;;;;10.43;4.55;;;20.90;99.90;;;;;;5053781;28;20095;-53
2023/08/23 07:21:29;;;;;;;7.88;4.38;;;21.00;99.90;;;;;;5050671;28;20067;-54
2023/08/23 07:23:56;;;;;;;10.43;4.82;;;21.10;99.90;;;;;;5049506;28;20041;-53
2023/08/23 07:26:21;;;;;;;8.82;4.38;;;21.20;99.90;;;;;;5051391;28;20029;-54
2023/08/23 07:28:47;;;;;;;16.73;5.40;;;21.30;99.90;;;;;;5049475;28;21508;-47
2023/08/23 07:31:13;;;;;;;6.97;4.18;;;21.30;99.90;;;;;;5048565;28;20021;-49
2023/08/23 07:33:38;;;;;;;10.05;5.22;;;21.40;99.90;;;;;;5053653;28;20032;-53
2023/08/23 07:36:04;;;;;;;8.85;4.80;;;21.50;99.90;;;;;;5052542;28;20059;-52
2023/08/23 07:38:32;;;;;;;9.98;5.63;;;21.60;99.90;;;;;;5050989;28;20569;-53
2023/08/23 07:40:58;;;;;;;;;;;21.70;99.90;;;;;;5054228;28;20025;-53
2023/08/23 07:43:24;;;;;;;8.17;5.03;;;21.80;99.90;;;;;;5050653;28;19923;-67
2023/08/23 07:45:55;;;;;;;9.40;5.93;;;21.80;99.90;;;;;;5051757;28;20029;-53
2023/08/23 07:48:22;;;;;;;9.23;5.70;;;21.90;99.90;;;;;;5052767;28;20025;-52
2023/08/23 07:50:55;;;;;;;16.65;5.82;;;21.90;99.90;;;;;;5052374;28;20474;-50
2023/08/23 07:53:22;;;;;;;11.88;5.40;;;22.10;99.90;;;;;;5053596;28;20029;-54
2023/08/23 07:55:48;;;;;;;9.55;6.72;;;22.10;99.90;;;;;;5050683;28;20497;-46
2023/08/23 07:58:16;;;;;;;9.70;5.38;;;22.10;99.90;;;;;;5052013;28;20063;-54
2023/08/23 08:00:41;;;;;;;12.07;5.50;;;22.20;99.90;;;;;;5051271;28;20530;-52
2023/08/23 08:03:08;;;;;;;17.25;6.43;;;22.20;99.90;;;;;;5051254;28;20112;-53
2023/08/23 08:05:34;;;;;;;13.85;5.75;;;22.20;99.90;;;;;;5043193;28;20021;-53
2023/08/23 08:08:00;;;;;;;10.18;5.45;;;22.40;99.90;;;;;;5052257;28;20025;-52
2023/08/23 08:10:26;;;;;;;13.40;5.72;;;22.40;99.90;;;;;;5052748;28;20032;-53
2023/08/23 08:12:52;;;;;;;8.18;4.68;;;22.60;99.90;;;;;;5035022;28;20477;-54
2023/08/23 08:15:18;;;;;;;6.03;5.03;;;22.60;99.90;;;;;;5051908;28;20033;-53
2023/08/23 08:17:43;;;;;;;12.68;4.85;;;22.70;99.90;;;;;;5047411;28;20490;-54
2023/08/23 08:20:10;;;;;;;9.90;5.07;;;22.80;99.90;;;;;;5049039;28;20486;-41
2023/08/23 08:22:37;;;;;;;9.45;5.10;;;22.90;99.90;;;;;;5045093;28;20397;-40
2023/08/23 08:25:04;;;;;;;10.95;5.22;;;22.90;99.90;;;;;;5050355;28;20037;-44
2023/08/23 08:27:30;;;;;;;5.68;4.05;;;22.80;99.90;;;;;;5051466;28;20064;-43
2023/08/23 08:29:56;;;;;;;5.63;4.05;;;23.00;99.90;;;;;;5033597;28;20575;-40
2023/08/23 08:32:21;;;;;;;10.52;4.80;;;23.10;99.90;;;;;;5034066;28;20057;-43
2023/08/23 08:34:47;;;;;;;7.10;4.85;;;23.10;99.90;;;;;;5049527;28;20025;-44
2023/08/23 08:37:13;;;;;;;6.63;4.40;;;23.20;99.90;;;;;;5051970;28;20026;-39
2023/08/23 08:39:39;;;;;;;10.10;5.25;;;23.30;99.90;;;;;;5033038;28;20029;-41
2023/08/23 08:42:05;;;;;;;5.85;4.90;;;23.40;99.90;;;;;;5045700;28;20379;-41
2023/08/23 08:44:30;;;;;;;6.85;4.68;;;23.50;99.90;;;;;;5049814;28;20474;-46
2023/08/23 08:46:56;;;;;;;6.22;4.40;;;23.60;99.90;;;;;;5050517;28;20096;-44
2023/08/23 08:49:22;;;;;;;9.90;4.70;;;23.70;99.90;;;;;;5050560;28;20025;-44
2023/08/23 08:51:47;;;;;;;9.10;5.07;;;23.90;99.90;;;;;;5051103;28;20466;-42
2023/08/23 08:54:18;;;;;;;7.03;4.60;;;24.00;99.90;;;;;;5050362;28;20041;-47
2023/08/23 08:56:47;;;;;;;10.15;5.18;;;24.10;99.90;;;;;;5049727;28;20031;-41
2023/08/23 08:59:15;;;;;;;13.15;4.70;;;24.20;99.90;;;;;;5052435;28;20450;-44
2023/08/23 09:01:42;;;;;;;7.40;5.10;;;24.30;99.90;;;;;;5051451;28;20405;-42
2023/08/23 09:04:07;;;;;;;6.80;5.40;;;24.40;99.90;;;;;;5051764;28;20033;-44
2023/08/23 09:06:36;;;;;;;6.43;4.05;;;24.60;99.90;;;;;;5048043;28;20382;-42
2023/08/23 09:09:03;;;;;;;7.18;4.05;;;24.80;99.90;;;;;;5049587;28;20492;-44
2023/08/23 09:11:29;;;;;;;7.07;4.63;;;24.90;99.90;;;;;;5049653;28;20048;-41
2023/08/23 09:13:55;;;;;;;13.63;5.82;;;25.00;99.90;;;;;;5051053;28;20056;-41
2023/08/23 09:16:23;;;;;;;6.13;4.45;;;25.20;99.90;;;;;;5048002;28;20067;-46
2023/08/23 09:18:49;;;;;;;8.35;4.88;;;25.30;99.90;;;;;;5052125;28;20041;-42
2023/08/23 09:21:15;;;;;;;8.55;4.85;;;25.40;99.90;;;;;;5039713;28;20117;-45
2023/08/23 09:23:41;;;;;;;7.45;4.53;;;25.70;99.90;;;;;;5048258;28;20029;-43
2023/08/23 09:26:07;;;;;;;9.02;4.15;;;26.10;99.90;;;;;;5052323;28;20104;-48
2023/08/23 09:28:33;;;;;;;6.68;4.45;;;26.30;99.90;;;;;;5052122;28;20374;-40
2023/08/23 09:30:59;;;;;;;6.25;3.85;;;26.40;99.90;;;;;;5052042;28;20094;-44
2023/08/23 09:33:25;;;;;;;7.03;4.57;;;26.30;99.90;;;;;;5052246;28;20596;-42
2023/08/23 09:35:51;;;;;;;11.85;4.65;;;26.30;99.90;;;;;;5052354;28;20029;-42
2023/08/23 09:38:20;;;;;;;6.90;4.57;;;26.40;99.90;;;;;;5052046;28;20016;-41
2023/08/23 09:40:47;;;;;;;10.57;4.38;;;26.70;99.90;;;;;;5051196;28;20032;-39
2023/08/23 09:43:16;;;;;;;8.88;4.00;;;27.00;99.90;;;;;;5054756;28;20039;-41
2023/08/23 09:45:41;;;;;;;6.88;3.88;;;27.20;99.90;;;;;;5055578;28;20029;-37
2023/08/23 09:48:10;;;;;;;6.00;3.35;;;27.30;99.90;;;;;;5055448;28;20031;-38
2023/08/23 09:50:36;;;;;;;8.43;4.90;;;27.40;99.90;;;;;;5038018;28;20024;-38
2023/08/23 09:53:05;;;;;;;6.13;4.45;;;27.60;99.90;;;;;;5055607;28;20400;-39
2023/08/23 09:55:32;;;;;;;7.53;5.32;;;27.90;99.90;;;;;;5061198;28;20019;-37
2023/08/23 09:57:59;;;;;;;14.35;4.68;;;28.20;99.90;;;;;;5054599;28;20385;-42
2023/08/23 10:00:25;;;;;;;;;;;28.30;99.90;;;;;;5037878;28;20544;-42
2023/08/23 10:02:52;;;;;;;13.05;5.00;;;28.40;99.90;;;;;;5055336;28;19909;-42
2023/08/23 10:05:18;;;;;;;;;;;28.50;99.90;;;;;;5055877;28;20021;-39
2023/08/23 10:07:44;;;;;;;6.20;4.22;;;28.40;99.90;;;;;;5055322;28;19916;-43
2023/08/23 10:10:10;;;;;;;7.93;3.93;;;28.50;99.90;;;;;;5055163;28;20025;-44
2023/08/23 10:12:40;;;;;;;8.02;3.67;;;28.40;99.90;;;;;;5055308;28;20040;-40
2023/08/23 10:15:08;;;;;;;9.55;3.88;;;28.30;99.90;;;;;;5052605;28;20056;-42
2023/08/23 10:17:35;;;;;;;8.18;3.97;;;28.30;99.90;;;;;;5033338;28;20021;-43
2023/08/23 10:20:08;;;;;;;7.05;3.45;;;28.00;99.90;;;;;;5054987;28;20588;-41
2023/08/23 10:22:34;;;;;;;5.32;2.55;;;28.00;99.90;;;;;;5054073;28;20017;-43
2023/08/23 10:25:00;;;;;;;10.35;4.82;;;28.00;99.90;;;;;;5047855;28;20037;-41
2023/08/23 10:27:25;;;;;;;12.50;5.28;;;28.30;99.90;;;;;;5053315;28;20048;-41
2023/08/23 10:29:52;;;;;;;6.38;4.60;;;28.40;99.90;;;;;;5052083;28;20021;-41
2023/08/23 10:32:18;;;;;;;8.75;4.00;;;28.40;99.90;;;;;;5052954;28;20075;-51
2023/08/23 10:34:44;;;;;;;7.60;3.00;;;28.50;99.90;;;;;;5052925;28;20029;-51
2023/08/23 10:37:20;;;;;;;7.63;4.05;;;28.70;99.90;;;;;;5052678;28;20024;-39
2023/08/23 10:39:50;;;;;;;9.55;4.45;;;28.70;99.90;;;;;;5043107;28;20118;-43
2023/08/23 10:42:17;;;;;;;13.25;3.78;;;28.40;99.90;;;;;;5048170;28;20111;-42
2023/08/23 10:45:04;;;;;;;9.27;4.50;;;28.10;99.90;;;;;;5053103;28;20064;-44
2023/08/23 10:47:35;;;;;;;7.53;3.70;;;27.80;99.90;;;;;;5050659;28;20082;-41
2023/08/23 10:50:02;;;;;;;7.72;3.17;;;27.70;99.90;;;;;;5052792;28;20021;-45
2023/08/23 10:52:28;;;;;;;6.88;3.38;;;27.80;99.90;;;;;;5052702;28;20024;-44
2023/08/23 10:54:54;;;;;;;5.30;3.47;;;27.80;99.90;;;;;;5054254;28;20029;-55
2023/08/23 10:57:20;;;;;;;6.70;3.92;;;27.90;99.90;;;;;;5054396;28;20017;-52
2023/08/23 10:59:46;;;;;;;8.43;3.58;;;28.00;99.90;;;;;;5054512;28;20032;-53
2023/08/23 11:02:12;;;;;;;4.93;2.08;;;28.00;99.90;;;;;;5054106;28;20540;-54
2023/08/23 11:04:38;;;;;;;2.97;2.30;;;28.00;99.90;;;;;;5054106;28;20036;-53
2023/08/23 11:07:03;;;;;;;3.38;1.75;;;28.00;99.90;;;;;;5052208;28;20025;-53
2023/08/23 11:09:29;;;;;;;12.73;2.15;;;28.00;99.90;;;;;;5053458;28;20489;-49
2023/08/23 11:11:55;;;;;;;9.75;1.75;;;27.90;99.90;;;;;;5051373;28;20371;-51
2023/08/23 11:14:21;;;;;;;7.60;1.88;;;27.90;99.90;;;;;;5042702;28;20056;-54
2023/08/23 11:16:47;;;;;;;4.47;2.35;;;27.90;99.90;;;;;;5054224;28;20017;-47
2023/08/23 11:19:13;;;;;;;3.80;2.50;;;27.90;99.90;;;;;;5053532;28;20021;-53
2023/08/23 11:21:39;;;;;;;4.50;2.40;;;27.70;99.90;;;;;;5053842;28;20126;-53
2023/08/23 11:24:05;;;;;;;4.80;1.50;;;27.40;99.90;;;;;;5052636;28;20108;-53
2023/08/23 11:26:37;;;;;;;3.53;1.77;;;27.10;99.90;;;;;;5051343;28;20072;-49
2023/08/23 11:29:04;;;;;;;4.35;1.73;;;27.10;99.90;;;;;;5051686;28;20036;-52
2023/08/23 11:31:32;;;;;;;3.78;1.33;;;27.00;99.90;;;;;;5053691;28;20104;-55
2023/08/23 11:34:05;;;;;;;5.85;1.67;;;26.80;99.90;;;;;;5053325;28;20426;-51
2023/08/23 11:36:32;;;;;;;7.78;1.85;;;26.90;99.90;;;;;;5053569;28;20033;-53
2023/08/23 11:39:04;;;;;;;3.00;1.63;;;27.00;99.90;;;;;;5042493;28;20703;-53
2023/08/23 11:41:34;;;;;;;5.80;1.70;;;27.10;99.90;;;;;;5053569;28;20025;-53
2023/08/23 11:44:09;;;;;;;2.95;1.52;;;27.20;99.90;;;;;;5053370;28;20029;-52
2023/08/23 11:46:38;;;;;;;6.95;1.92;;;27.30;99.90;;;;;;5053519;28;20486;-53
2023/08/23 11:49:08;;;;;;;5.78;1.83;;;27.40;99.90;;;;;;5053329;28;20021;-54
2023/08/23 11:51:47;;;;;;;1.38;1.23;;;27.20;99.90;;;;;;5053643;28;20066;-52
2023/08/23 11:54:14;;;;;;;4.95;2.45;;;27.30;99.90;;;;;;5047332;28;20033;-52
2023/08/23 11:56:44;;;;;;;3.23;1.40;;;27.30;99.90;;;;;;5047805;28;20027;-53
2023/08/23 11:59:11;;;;;;;4.78;1.58;;;27.30;99.90;;;;;;5048143;28;20590;-55
2023/08/23 12:01:38;;;;;;;7.10;1.30;;;26.90;99.90;;;;;;5041713;28;20107;-52
2023/08/23 12:04:05;;;;;;;4.00;1.33;;;26.50;99.90;;;;;;5052348;28;20057;-53
2023/08/23 12:06:30;;;;;;;3.27;2.07;;;26.40;99.90;;;;;;5050882;28;20025;-50
2023/08/23 12:08:56;;;;;;;3.58;1.40;;;26.60;99.90;;;;;;5047708;28;20276;-53
2023/08/23 12:11:22;;;;;;;3.42;1.40;;;26.60;99.90;;;;;;5045682;28;20024;-53
2023/08/23 12:13:47;;;;;;;5.22;2.35;;;26.50;99.90;;;;;;5052223;28;20040;-53
2023/08/23 12:16:13;;;;;;;3.22;1.73;;;26.60;99.90;;;;;;5048673;28;20103;-56
2023/08/23 12:18:41;;;;;;;3.95;2.17;;;26.60;99.90;;;;;;5049364;28;20033;-52
2023/08/23 12:21:06;;;;;;;3.90;1.83;;;26.60;99.90;;;;;;5050643;28;20028;-53
2023/08/23 12:23:32;;;;;;;2.97;1.80;;;26.40;99.90;;;;;;5052684;28;20036;-54
2023/08/23 12:25:59;;;;;;;2.83;1.30;;;26.40;99.90;;;;;;5052472;28;20099;-53
2023/08/23 12:28:24;;;;;;;3.92;1.40;;;26.20;99.90;;;;;;5052608;28;20033;-54
2023/08/23 12:30:50;;;;;;;2.83;1.42;;;26.00;99.90;;;;;;5049557;28;20025;-54
2023/08/23 12:33:16;;;;;;;2.85;1.55;;;26.00;99.90;;;;;;5052557;28;20536;-54
2023/08/23 12:35:42;;;;;;;3.13;1.95;;;25.80;99.90;;;;;;5051704;28;20115;-54
2023/08/23 12:38:07;;;;;;;5.47;2.67;;;25.50;99.90;;;;;;5034456;28;20505;-51
2023/08/23 12:40:33;;;;;;;3.38;2.47;;;25.30;99.90;;;;;;5052638;28;20442;-54
2023/08/23 12:42:59;;;;;;;5.78;2.65;;;25.30;99.90;;;;;;5052399;28;20076;-53